Atlanta, GA (30301)

9:19 AM EST on December 03, 2016 (GMT -0500)
Centennial Olympic Park | | Change Station

Elev 1030 ft 33.76 °N, 84.39 °W | Updated 58 seconds ago

Clear
Clear
44.0 °F
Feels Like 42 °F
N
4.0
Wind Variable Wind from WNW
Gusts 6.0 mph

Today
High -- | Low -- °F
--% Chance of Precip.
Yesterday
High -- | Low -- °F
Precip. -- in
Pressure 30.29 in
Visibility 10.0 miles
Clouds Clear
Windchill 42 °F
Dew Point 33 °F
Humidity 65%
Rainfall 0.00 in
Snow Depth Not available.
7:26 AM 5:28 PM
Waxing Crescent, 15% visible
METAR KFTY 031353Z 00000KT 10SM CLR 06/00 A3028 RMK AO2 SLP257 T00610000
Pressure 30.29 in
Visibility 10.0 miles
Clouds Clear
Windchill 42 °F
Dew Point 33 °F
Humidity 65%
Rainfall 0.00 in
Snow Depth Not available.
7:26 AM 5:28 PM
Waxing Crescent, 15% visible
METAR KFTY 031353Z 00000KT 10SM CLR 06/00 A3028 RMK AO2 SLP257 T00610000

10-Day Weather Forecast

Almanac

Astronomy

Dec. 03, 2016 Rise Set
Actual Time
Civil Twilight
Nautical Twilight
Astronomical Twilight
Moon
Length of Visible Light
Length of Day
Tomorrow will be .
, % of the Moon is Illuminated

Today's Extremes

State Highs State Lows

Community

WunderPhotos

Upload Photos

1,955,446 photos uploaded!

WunderBlog® & News

Nearby

Air Quality

  Air Quality AQ Index Pollutant
Not available.

Snow Depth

Station Depth Elevation

Earthquake Activity

City Distance Mag. Time & Date
Minimum magnitude displayed is 2.5.

Coastal Water Temperatures

Place Temperature

Stations

Nearby Weather Stations

Station Location Temp. Windchill Dew Point Humidity Wind Precip. Elev Updated Type
                   

Watches & Warnings

There are currently no watches in effect.